createdAt,value
2024-03-06T00:01:10.697Z,97945.28
2024-03-06T00:03:37.477Z,97949.06
2024-03-06T00:06:04.372Z,97947.53
2024-03-06T00:08:31.444Z,97955.09
2024-03-06T00:10:58.254Z,97955.91
2024-03-06T00:13:24.937Z,97953.56
2024-03-06T00:15:51.476Z,97946.63
2024-03-06T00:18:18.491Z,97954.69
2024-03-06T00:20:45.972Z,97958.47
2024-03-06T00:23:12.732Z,97959.56
2024-03-06T00:25:39.782Z,97962.25
2024-03-06T00:28:07.387Z,97971.88
2024-03-06T00:30:33.982Z,97981.03
2024-03-06T00:33:00.719Z,97974.47
2024-03-06T00:35:27.373Z,97971.44
2024-03-06T00:37:54.610Z,97976.81
2024-03-06T00:40:21.609Z,97975.22
2024-03-06T00:42:48.333Z,97976.34
2024-03-06T00:45:14.871Z,97979.69
2024-03-06T00:47:41.732Z,97978.59
2024-03-06T00:50:08.955Z,97985.84
2024-03-06T00:52:35.792Z,97986.63
2024-03-06T00:55:02.525Z,97995.13
2024-03-06T00:57:29.507Z,97995.44
2024-03-06T00:59:56.178Z,98004.59
2024-03-06T01:02:22.921Z,98001.50
2024-03-06T01:04:49.640Z,98001.81
2024-03-06T01:07:16.246Z,97994.44
2024-03-06T01:09:42.833Z,98001.34
2024-03-06T01:12:09.720Z,98010.53
2024-03-06T01:14:38.685Z,98006.63
2024-03-06T01:17:07.565Z,98002.81
2024-03-06T01:19:34.587Z,98001.25
2024-03-06T01:22:01.240Z,98002.03
2024-03-06T01:24:27.791Z,98005.38
2024-03-06T01:26:54.682Z,98006.47
2024-03-06T01:29:21.330Z,98003.38
2024-03-06T01:31:48.339Z,98000.22
2024-03-06T01:34:15.013Z,98007.50
2024-03-06T01:36:41.531Z,97998.66
2024-03-06T01:39:08.265Z,98002.47
2024-03-06T01:41:34.865Z,98011.75
2024-03-06T01:44:02.721Z,98000.13
2024-03-06T01:46:29.587Z,98006.25
2024-03-06T01:48:57.903Z,98010.03
2024-03-06T01:51:25.284Z,98011.59
2024-03-06T01:53:52.653Z,98003.56
2024-03-06T01:56:19.644Z,98006.25
2024-03-06T01:58:47.906Z,98010.03
2024-03-06T02:01:15.751Z,98015.41
2024-03-06T02:03:43.094Z,98016.19
2024-03-06T02:06:11.329Z,98018.53
2024-03-06T02:08:37.957Z,98010.50
2024-03-06T02:11:05.042Z,98016.63
2024-03-06T02:13:32.060Z,98008.59
2024-03-06T02:15:59.658Z,98016.19
2024-03-06T02:18:26.351Z,98020.00
2024-03-06T02:20:53.086Z,98016.53
2024-03-06T02:23:21.640Z,98016.53
2024-03-06T02:25:48.728Z,98013.50
2024-03-06T02:28:15.532Z,98013.84
2024-03-06T02:30:42.557Z,98017.31
2024-03-06T02:33:09.466Z,98014.63
2024-03-06T02:35:37.227Z,98012.28
2024-03-06T02:38:07.780Z,98016.53
2024-03-06T02:40:34.842Z,98015.41
2024-03-06T02:43:01.519Z,98023.00
2024-03-06T02:45:28.373Z,98019.41
2024-03-06T02:47:55.313Z,98020.84
2024-03-06T02:50:22.445Z,98017.41
2024-03-06T02:52:49.673Z,98021.97
2024-03-06T02:55:16.467Z,98025.09
2024-03-06T02:57:43.019Z,98029.22
2024-03-06T03:00:14.239Z,98018.16
2024-03-06T03:02:41.540Z,98028.13
2024-03-06T03:05:08.696Z,98031.91
2024-03-06T03:07:35.518Z,98032.25
2024-03-06T03:10:02.215Z,98037.59
2024-03-06T03:12:28.772Z,98035.25
2024-03-06T03:14:55.570Z,98037.16
2024-03-06T03:17:22.264Z,98044.88
2024-03-06T03:19:48.910Z,98042.19
2024-03-06T03:22:15.639Z,98042.97
2024-03-06T03:24:45.316Z,98034.78
2024-03-06T03:27:12.348Z,98045.19
2024-03-06T03:29:38.974Z,98038.47
2024-03-06T03:32:05.835Z,98032.31
2024-03-06T03:34:34.083Z,98035.66
2024-03-06T03:37:00.718Z,98032.53
2024-03-06T03:39:28.546Z,98033.63
2024-03-06T03:41:55.426Z,98029.41
2024-03-06T03:47:13.681Z,98031.59
2024-03-06T03:49:40.724Z,98024.38
2024-03-06T03:52:07.887Z,98030.50
2024-03-06T03:54:34.427Z,98036.97
2024-03-06T03:57:01.258Z,98034.63
2024-03-06T03:59:28.057Z,98040.44
2024-03-06T04:01:54.688Z,98045.47
2024-03-06T04:04:22.577Z,98049.25
2024-03-06T04:06:49.448Z,98058.88
2024-03-06T04:09:16.120Z,98063.09
2024-03-06T04:11:42.753Z,98066.59
2024-03-06T04:14:10.204Z,98061.22
2024-03-06T04:16:37.407Z,98066.91
2024-03-06T04:19:04.885Z,98069.59
2024-03-06T04:21:31.679Z,98074.94
2024-03-06T04:23:59.605Z,98069.94
2024-03-06T04:26:26.203Z,98080.66
2024-03-06T04:28:53.089Z,98080.97
2024-03-06T04:31:25.442Z,98084.44
2024-03-06T04:33:52.198Z,98085.19
2024-03-06T04:36:18.826Z,98091.03
2024-03-06T04:38:45.727Z,98085.69
2024-03-06T04:41:12.341Z,98090.22
2024-03-06T04:43:39.411Z,98086.34
2024-03-06T04:46:06.148Z,98100.38
2024-03-06T04:48:32.986Z,98091.56
2024-03-06T04:50:59.550Z,98098.34
2024-03-06T04:53:26.346Z,98094.09
2024-03-06T04:55:53.817Z,98098.22
2024-03-06T04:58:21.337Z,98110.06
2024-03-06T05:00:48.143Z,98102.66
2024-03-06T05:58:13.592Z,98165.44
2024-03-06T06:00:42.459Z,98172.38
2024-03-06T06:03:13.191Z,98179.63
2024-03-06T06:05:41.276Z,98178.03
2024-03-06T06:08:08.122Z,98184.19
2024-03-06T06:10:35.662Z,98185.31
2024-03-06T06:13:06.126Z,98187.19
2024-03-06T06:15:33.773Z,98192.88
2024-03-06T06:18:00.594Z,98189.72
2024-03-06T06:20:27.656Z,98189.72
2024-03-06T06:22:54.442Z,98193.22
2024-03-06T06:25:21.513Z,98198.09
2024-03-06T06:27:50.679Z,98204.22
2024-03-06T06:30:18.143Z,98201.53
2024-03-06T06:32:45.391Z,98199.19
2024-03-06T06:35:14.602Z,98207.22
2024-03-06T06:37:41.607Z,98216.72
2024-03-06T06:40:09.341Z,98209.78
2024-03-06T06:42:37.163Z,98217.50
2024-03-06T06:45:04.382Z,98210.56
2024-03-06T06:47:31.797Z,98220.50
2024-03-06T06:49:58.819Z,98218.91
2024-03-06T06:52:28.862Z,98218.13
2024-03-06T06:54:55.830Z,98221.91
2024-03-06T06:57:22.494Z,98219.56
2024-03-06T06:59:49.071Z,98222.25
2024-03-06T07:02:15.829Z,98224.91
2024-03-06T07:04:42.636Z,98225.69
2024-03-06T07:07:09.199Z,98221.91
2024-03-06T07:09:35.898Z,98228.84
2024-03-06T07:12:04.129Z,98234.22
2024-03-06T07:14:30.847Z,98241.91
2024-03-06T07:16:57.508Z,98244.59
2024-03-06T07:19:24.330Z,98242.69
2024-03-06T07:21:51.255Z,98241.91
2024-03-06T07:24:17.816Z,98244.28
2024-03-06T07:26:44.863Z,98251.53
2024-03-06T07:29:15.905Z,98246.19
2024-03-06T07:31:43.488Z,98249.63
2024-03-06T07:34:10.041Z,98253.88
2024-03-06T07:36:36.816Z,98255.31
2024-03-06T07:39:04.549Z,98254.97
2024-03-06T07:41:34.148Z,98253.09
2024-03-06T07:44:01.487Z,98251.97
2024-03-06T07:46:28.376Z,98258.91
2024-03-06T07:48:55.006Z,98253.88
2024-03-06T07:51:21.823Z,98261.13
2024-03-06T07:53:50.641Z,98260.03
2024-03-06T07:56:17.872Z,98262.69
2024-03-06T07:58:44.846Z,98256.25
2024-03-06T08:01:12.529Z,98263.47
2024-03-06T08:03:40.983Z,98261.59
2024-03-06T08:06:07.785Z,98267.41
2024-03-06T08:08:34.571Z,98267.41
2024-03-06T08:11:01.528Z,98261.28
2024-03-06T08:13:28.770Z,98271.66
2024-03-06T08:15:55.439Z,98274.78
2024-03-06T08:18:22.294Z,98270.56
2024-03-06T08:20:48.934Z,98272.13
2024-03-06T08:23:15.690Z,98278.72
2024-03-06T08:25:42.579Z,98270.69
2024-03-06T08:28:11.131Z,98273.69
2024-03-06T08:30:37.880Z,98276.84
2024-03-06T08:33:04.749Z,98279.97
2024-03-06T08:35:31.797Z,98283.13
2024-03-06T08:37:58.634Z,98284.25
2024-03-06T08:40:27.013Z,98289.72
2024-03-06T08:42:54.011Z,98293.22
2024-03-06T08:45:20.748Z,98290.22
2024-03-06T08:47:49.511Z,98291.63
2024-03-06T08:50:17.579Z,98294.75
2024-03-06T08:52:44.539Z,98297.00
2024-03-06T08:55:11.219Z,98299.03
2024-03-06T08:57:38.750Z,98295.56
2024-03-06T09:00:11.938Z,98299.50
2024-03-06T09:02:40.156Z,98306.09
2024-03-06T09:05:08.756Z,98307.66
2024-03-06T09:07:39.369Z,98302.31
2024-03-06T09:10:09.583Z,98307.66
2024-03-06T09:12:36.820Z,98305.75
2024-03-06T09:15:04.452Z,98310.34
2024-03-06T09:17:31.706Z,98311.13
2024-03-06T09:20:08.161Z,98300.88
2024-03-06T09:22:40.754Z,98312.88
2024-03-06T09:25:08.600Z,98313.78
2024-03-06T09:27:35.458Z,98313.91
2024-03-06T09:30:02.399Z,98322.13
2024-03-06T09:32:29.424Z,98324.78
2024-03-06T09:34:56.128Z,98325.91
2024-03-06T09:37:22.902Z,98330.94
2024-03-06T09:39:49.643Z,98334.72
2024-03-06T09:42:16.849Z,98329.34
2024-03-06T09:44:44.254Z,98329.81
2024-03-06T09:47:15.863Z,98333.13
2024-03-06T09:49:44.079Z,98334.38
2024-03-06T09:52:11.847Z,98339.41
2024-03-06T09:54:40.507Z,98333.41
2024-03-06T09:57:07.447Z,98335.75
2024-03-06T09:59:34.551Z,98340.47
2024-03-06T10:02:06.107Z,98341.56
2024-03-06T10:04:35.377Z,98346.91
2024-03-06T10:07:03.844Z,98334.66
2024-03-06T10:09:32.185Z,98338.59
2024-03-06T10:12:01.778Z,98335.91
2024-03-06T10:14:31.340Z,98337.44
2024-03-06T10:17:02.022Z,98346.31
2024-03-06T10:19:30.245Z,98348.00
2024-03-06T10:21:58.418Z,98341.53
2024-03-06T10:24:29.629Z,98341.22
2024-03-06T10:26:59.629Z,98341.22
2024-03-06T10:29:28.419Z,98344.34
2024-03-06T10:31:58.214Z,98346.38
2024-03-06T10:34:26.919Z,98340.38
2024-03-06T10:36:58.780Z,98331.88
2024-03-06T10:39:26.445Z,98330.09
2024-03-06T10:41:57.486Z,98341.75
2024-03-06T10:44:27.766Z,98347.13
2024-03-06T10:47:02.672Z,98347.56
2024-03-06T10:49:31.105Z,98341.91
2024-03-06T10:52:02.425Z,98340.44
2024-03-06T10:54:33.527Z,98344.38
2024-03-06T10:57:00.325Z,98342.97
2024-03-06T10:59:31.845Z,98348.47
2024-03-06T11:02:02.316Z,98349.38
2024-03-06T11:04:36.023Z,98348.06
2024-03-06T11:07:04.915Z,98351.34
2024-03-06T11:09:39.836Z,98344.66
2024-03-06T11:12:08.357Z,98343.25
2024-03-06T11:14:41.742Z,98347.16
2024-03-06T11:17:11.769Z,98344.16
2024-03-06T11:20:00.884Z,98341.13
2024-03-06T11:22:59.851Z,98341.13
2024-03-06T11:25:48.908Z,98337.03
2024-03-06T11:28:31.456Z,98338.59
2024-03-06T11:31:00.201Z,98330.34
2024-03-06T11:33:37.720Z,98335.94
2024-03-06T11:36:24.770Z,98334.31
2024-03-06T11:38:58.934Z,98328.44
2024-03-06T11:41:30.791Z,98333.25
2024-03-06T11:44:00.295Z,98322.75
2024-03-06T11:46:43.090Z,98320.31
2024-03-06T11:49:22.225Z,98311.84
2024-03-06T11:51:50.098Z,98314.88
2024-03-06T11:54:17.525Z,98311.91
2024-03-06T11:56:48.439Z,98312.69
2024-03-06T11:59:15.783Z,98317.19
2024-03-06T12:01:43.274Z,98322.03
2024-03-06T12:04:10.012Z,98318.09
2024-03-06T12:06:38.107Z,98306.66
2024-03-06T12:09:04.958Z,98304.88
2024-03-06T12:11:32.605Z,98305.69
2024-03-06T12:13:59.817Z,98297.59
2024-03-06T12:16:26.512Z,98295.34
2024-03-06T12:19:00.522Z,98291.56
2024-03-06T12:21:32.906Z,98286.50
2024-03-06T12:24:07.127Z,98290.09
2024-03-06T12:26:34.000Z,98294.66
2024-03-06T12:29:11.376Z,98286.81
2024-03-06T12:31:40.690Z,98286.13
2024-03-06T12:34:10.486Z,98275.97
2024-03-06T12:36:38.325Z,98275.50
2024-03-06T12:39:04.941Z,98274.63
2024-03-06T12:41:31.732Z,98278.44
2024-03-06T12:43:58.758Z,98280.22
2024-03-06T12:46:27.602Z,98279.44
2024-03-06T12:48:54.372Z,98266.00
2024-03-06T12:51:21.463Z,98267.13
2024-03-06T12:53:49.176Z,98263.53
2024-03-06T12:56:16.003Z,98258.94
2024-03-06T12:58:42.796Z,98266.31
2024-03-06T13:01:09.471Z,98266.00
2024-03-06T13:03:36.086Z,98268.25
2024-03-06T13:06:03.035Z,98263.53
2024-03-06T13:08:29.686Z,98257.28
2024-03-06T13:10:57.234Z,98261.53
2024-03-06T13:13:27.245Z,98274.84
2024-03-06T13:15:53.868Z,98258.50
2024-03-06T13:18:20.705Z,98269.13
2024-03-06T13:20:47.816Z,98264.00
2024-03-06T13:23:14.678Z,98267.19
2024-03-06T13:25:41.551Z,98273.13
2024-03-06T13:28:08.360Z,98270.19
2024-03-06T13:30:35.058Z,98263.59
2024-03-06T13:33:01.759Z,98275.00
2024-03-06T13:35:30.057Z,98271.06
2024-03-06T13:37:56.961Z,98272.53
2024-03-06T13:40:23.788Z,98273.66
2024-03-06T13:42:50.567Z,98261.69
2024-03-06T13:45:17.171Z,98262.69
2024-03-06T13:47:45.071Z,98255.25
2024-03-06T13:50:16.556Z,98260.97
2024-03-06T13:52:43.571Z,98266.69
2024-03-06T13:55:10.846Z,98270.16
2024-03-06T13:57:38.791Z,98269.69
2024-03-06T14:00:19.141Z,98274.28
2024-03-06T14:02:49.581Z,98277.31
2024-03-06T14:05:16.647Z,98281.88
2024-03-06T14:07:43.588Z,98284.91
2024-03-06T14:10:12.054Z,98292.97
2024-03-06T14:12:39.602Z,98287.16
2024-03-06T14:15:10.294Z,98288.72
2024-03-06T14:17:37.244Z,98280.19
2024-03-06T14:20:04.754Z,98292.38
2024-03-06T14:22:31.587Z,98285.47
2024-03-06T14:24:58.539Z,98281.19
2024-03-06T14:27:25.132Z,98283.41
2024-03-06T14:29:51.871Z,98291.94
2024-03-06T14:32:20.514Z,98288.47
2024-03-06T14:34:47.255Z,98298.56
2024-03-06T14:37:14.240Z,98300.91
2024-03-06T14:39:41.484Z,98299.47
2024-03-06T14:42:08.328Z,98298.00
2024-03-06T14:44:34.942Z,98309.66
2024-03-06T14:47:02.019Z,98306.28
2024-03-06T14:49:28.756Z,98311.38
2024-03-06T14:51:56.713Z,98306.78
2024-03-06T14:54:27.422Z,98316.84
2024-03-06T14:56:54.436Z,98314.63
2024-03-06T14:59:22.865Z,98315.41
2024-03-06T15:01:51.525Z,98314.28
2024-03-06T15:04:18.555Z,98315.50
2024-03-06T15:06:47.083Z,98314.72
2024-03-06T15:09:17.052Z,98317.41
2024-03-06T15:11:43.866Z,98312.50
2024-03-06T15:14:10.696Z,98313.63
2024-03-06T15:16:38.808Z,98304.75
2024-03-06T15:19:05.490Z,98313.16
2024-03-06T15:21:32.372Z,98312.38
2024-03-06T15:24:06.192Z,98309.69
2024-03-06T15:26:33.289Z,98320.00
2024-03-06T15:29:01.091Z,98313.06
2024-03-06T15:31:28.104Z,98309.44
2024-03-06T15:33:54.766Z,98311.38
2024-03-06T15:36:22.229Z,98312.91
2024-03-06T15:38:49.151Z,98309.78
2024-03-06T15:41:16.092Z,98309.31
2024-03-06T15:43:42.685Z,98311.56
2024-03-06T15:46:09.624Z,98316.47
2024-03-06T15:48:36.333Z,98329.13
2024-03-06T15:51:03.068Z,98329.91
2024-03-06T15:53:31.390Z,98332.56
2024-03-06T15:55:58.037Z,98330.69
2024-03-06T15:58:25.740Z,98337.66
2024-03-06T16:00:56.719Z,98336.50
2024-03-06T16:03:26.214Z,98340.00
2024-03-06T16:05:59.250Z,98338.09
2024-03-06T16:08:34.231Z,98338.09
2024-03-06T16:11:02.319Z,98345.03
2024-03-06T16:13:28.875Z,98347.72
2024-03-06T16:15:56.415Z,98347.25
2024-03-06T16:18:23.248Z,98355.31
2024-03-06T16:20:49.997Z,98347.59
2024-03-06T16:23:16.809Z,98350.28
2024-03-06T16:25:43.866Z,98352.53
2024-03-06T16:28:10.457Z,98353.63
2024-03-06T16:30:37.201Z,98354.72
2024-03-06T16:33:04.542Z,98360.91
2024-03-06T16:35:32.883Z,98363.00
2024-03-06T16:37:59.660Z,98359.41
2024-03-06T16:40:26.360Z,98363.19
2024-03-06T16:42:53.053Z,98358.16
2024-03-06T16:45:19.699Z,98372.25
2024-03-06T16:47:46.367Z,98364.19
2024-03-06T16:50:13.588Z,98364.84
2024-03-06T16:52:40.469Z,98365.16
2024-03-06T16:55:09.028Z,98365.50
2024-03-06T16:57:35.851Z,98369.16
2024-03-06T17:00:02.680Z,98368.72
2024-03-06T17:02:29.306Z,98370.16
2024-03-06T17:04:55.987Z,98367.31
2024-03-06T17:07:22.692Z,98367.97
2024-03-06T17:09:49.226Z,98373.69
2024-03-06T17:12:16.263Z,98371.66
2024-03-06T17:14:42.999Z,98378.47
2024-03-06T17:17:09.631Z,98379.78
2024-03-06T17:19:38.522Z,98380.28
2024-03-06T17:22:05.974Z,98382.38
2024-03-06T17:24:33.696Z,98386.03
2024-03-06T17:27:00.593Z,98387.13
2024-03-06T17:29:27.376Z,98396.28
2024-03-06T17:31:54.070Z,98395.50
2024-03-06T17:34:20.651Z,98390.31
2024-03-06T17:36:47.764Z,98393.66
2024-03-06T17:39:17.532Z,98392.72
2024-03-06T17:41:45.023Z,98399.19
2024-03-06T17:44:11.987Z,98399.19
2024-03-06T17:46:38.648Z,98403.00
2024-03-06T17:49:05.255Z,98406.31
2024-03-06T17:51:33.216Z,98403.16
2024-03-06T17:53:59.997Z,98407.28
2024-03-06T17:56:26.783Z,98405.25
2024-03-06T17:58:53.968Z,98402.88
2024-03-06T18:01:25.117Z,98405.91
2024-03-06T18:03:52.904Z,98418.50
2024-03-06T18:06:19.980Z,98415.50
2024-03-06T18:08:46.790Z,98417.25
2024-03-06T18:11:13.995Z,98417.13
2024-03-06T18:13:40.978Z,98415.22
2024-03-06T18:16:10.696Z,98423.56
2024-03-06T18:18:38.197Z,98428.47
2024-03-06T18:21:05.764Z,98427.34
2024-03-06T18:23:32.734Z,98426.56
2024-03-06T18:26:00.627Z,98425.81
2024-03-06T18:28:27.883Z,98426.13
2024-03-06T18:30:54.786Z,98422.97
2024-03-06T18:33:21.746Z,98420.94
2024-03-06T18:35:48.485Z,98422.50
2024-03-06T18:38:15.220Z,98420.16
2024-03-06T18:40:42.090Z,98426.94
2024-03-06T18:43:09.803Z,98416.06
2024-03-06T18:45:36.495Z,98425.22
2024-03-06T18:48:03.577Z,98416.69
2024-03-06T18:50:33.080Z,98420.47
2024-03-06T18:53:00.215Z,98422.69
2024-03-06T18:55:27.689Z,98423.81
2024-03-06T18:57:54.431Z,98428.72
2024-03-06T19:00:22.365Z,98426.03
2024-03-06T19:02:51.488Z,98429.47
2024-03-06T19:05:19.776Z,98418.00
2024-03-06T19:07:47.320Z,98422.88
2024-03-06T19:10:14.327Z,98424.78
2024-03-06T19:12:43.178Z,98424.78
2024-03-06T19:15:10.399Z,98427.78
2024-03-06T19:17:37.233Z,98427.28
2024-03-06T19:20:06.633Z,98420.84
2024-03-06T19:22:33.992Z,98422.41
2024-03-06T19:25:00.650Z,98421.59
2024-03-06T19:27:28.960Z,98421.16
2024-03-06T19:29:56.410Z,98419.25
2024-03-06T19:32:23.507Z,98423.06
2024-03-06T19:34:50.140Z,98418.78
2024-03-06T19:37:16.719Z,98422.56
2024-03-06T19:39:43.402Z,98421.47
2024-03-06T19:42:10.782Z,98427.16
2024-03-06T19:44:37.539Z,98421.00
2024-03-06T19:47:05.371Z,98425.56
2024-03-06T19:49:33.857Z,98422.13
2024-03-06T19:52:00.544Z,98420.53
2024-03-06T19:54:30.334Z,98424.78
2024-03-06T19:57:00.107Z,98416.28
2024-03-06T19:59:26.836Z,98414.41
2024-03-06T20:01:56.872Z,98423.53
2024-03-06T20:04:24.722Z,98424.63
2024-03-06T20:06:52.065Z,98421.19
2024-03-06T20:09:18.827Z,98421.94
2024-03-06T20:11:46.525Z,98416.13
2024-03-06T20:14:15.018Z,98405.09
2024-03-06T20:16:41.695Z,98406.97
2024-03-06T20:19:09.491Z,98411.88
2024-03-06T20:21:37.600Z,98419.47
2024-03-06T20:24:04.854Z,98406.06
2024-03-06T20:26:31.766Z,98404.16
2024-03-06T20:28:59.829Z,98407.94
2024-03-06T20:31:26.694Z,98417.06
2024-03-06T20:33:56.090Z,98410.16
2024-03-06T20:36:22.922Z,98407.47
2024-03-06T20:38:49.868Z,98416.94
2024-03-06T20:41:17.811Z,98410.81
2024-03-06T20:43:44.861Z,98417.25
2024-03-06T20:46:11.634Z,98415.34
2024-03-06T20:48:39.314Z,98410.31
2024-03-06T20:51:10.350Z,98419.13
2024-03-06T20:53:37.566Z,98410.31
2024-03-06T20:56:04.642Z,98412.22
2024-03-06T20:58:31.413Z,98404.97
2024-03-06T21:00:58.085Z,98399.59
2024-03-06T21:03:24.734Z,98403.38
2024-03-06T21:05:52.243Z,98403.84
2024-03-06T21:08:18.997Z,98401.19
2024-03-06T21:10:45.977Z,98399.91
2024-03-06T21:13:13.151Z,98392.97
2024-03-06T21:15:39.746Z,98399.16
2024-03-06T21:18:07.251Z,98387.63
2024-03-06T21:20:34.611Z,98397.56
2024-03-06T21:23:01.239Z,98397.56
2024-03-06T21:25:28.167Z,98395.66
2024-03-06T21:27:59.936Z,98392.53
2024-03-06T21:30:26.670Z,98397.88
2024-03-06T21:32:53.733Z,98396.78
2024-03-06T21:35:22.217Z,98397.06
2024-03-06T21:37:49.095Z,98394.41
2024-03-06T21:40:16.149Z,98398.66
2024-03-06T21:42:43.491Z,98397.06
2024-03-06T21:45:10.230Z,98394.41
2024-03-06T21:47:37.210Z,98398.19
2024-03-06T21:50:07.077Z,98394.41
2024-03-06T21:52:35.058Z,98403.25
2024-03-06T21:55:02.548Z,98391.72
2024-03-06T21:57:29.126Z,98386.38
2024-03-06T21:59:57.153Z,98391.72
2024-03-06T22:02:24.185Z,98392.03
2024-03-06T22:04:50.888Z,98383.22
2024-03-06T22:07:17.912Z,98393.16
2024-03-06T22:09:44.571Z,98390.16
2024-03-06T22:12:12.436Z,98386.69
2024-03-06T22:14:47.011Z,98384.00
2024-03-06T22:17:13.765Z,98381.31
2024-03-06T22:19:41.886Z,98379.44
2024-03-06T22:22:08.776Z,98377.88
2024-03-06T22:24:35.376Z,98375.97
2024-03-06T22:27:02.179Z,98375.97
2024-03-06T22:29:29.031Z,98370.63
2024-03-06T22:31:55.662Z,98379.44
2024-03-06T22:34:22.406Z,98375.97
2024-03-06T22:36:48.935Z,98373.28
2024-03-06T22:39:15.620Z,98376.78
2024-03-06T22:41:42.303Z,98368.25
2024-03-06T22:44:09.109Z,98369.84
2024-03-06T22:46:44.478Z,98375.97
2024-03-06T22:49:17.570Z,98369.84
2024-03-06T22:51:44.211Z,98363.69
2024-03-06T22:54:10.773Z,98365.56
2024-03-06T22:56:38.572Z,98366.69
2024-03-06T22:59:05.692Z,98366.69
2024-03-06T23:01:32.856Z,98362.91
2024-03-06T23:03:59.774Z,98362.13
2024-03-06T23:06:28.954Z,98360.53
2024-03-06T23:08:55.577Z,98362.44
2024-03-06T23:11:22.602Z,98362.91
2024-03-06T23:13:49.297Z,98357.53
2024-03-06T23:16:15.911Z,98352.19
2024-03-06T23:18:47.837Z,98350.00
2024-03-06T23:21:14.390Z,98348.41
2024-03-06T23:23:41.186Z,98341.47
2024-03-06T23:26:07.811Z,98338.78
2024-03-06T23:28:34.549Z,98338.78
2024-03-06T23:31:01.360Z,98337.69
2024-03-06T23:33:28.131Z,98346.19
2024-03-06T23:35:55.970Z,98339.28
2024-03-06T23:40:49.825Z,98326.97
2024-03-06T23:43:16.399Z,98333.13
2024-03-06T23:45:43.161Z,98328.56
2024-03-06T23:48:11.768Z,98323.19
2024-03-06T23:50:39.285Z,98327.13
2024-03-06T23:53:06.051Z,98321.47
2024-03-06T23:55:32.671Z,98324.47
2024-03-06T23:57:59.262Z,98317.19
